Time;durP1;ratioP1;P1;durP2;ratioP2;P2;SDS_P1;SDS_P2;PMS_P1;PMS_P2;Temp;Humidity;BMP_temperature;BMP_pressure;BME280_temperature;BME280_humidity;BME280_pressure;Samples;Min_cycle;Max_cycle;Signal;HPM_P1;HPM_P2
2023/09/17 00:02:03;;;;;;;6.37;5.97;;;;;;;21.67;63.94;97747.06;5070570;28;20466;-73
2023/09/17 00:04:30;;;;;;;7.10;6.60;;;;;;;21.77;63.41;97747.00;5067815;28;20476;-74
2023/09/17 00:06:57;;;;;;;6.67;6.17;;;;;;;21.80;63.54;97745.63;5068855;28;20460;-74
2023/09/17 00:09:23;;;;;;;7.93;7.33;;;;;;;21.78;63.62;97753.34;5068781;28;20463;-74
2023/09/17 00:11:49;;;;;;;8.23;7.63;;;;;;;21.59;63.98;97749.56;5069496;28;21016;-74
2023/09/17 00:14:16;;;;;;;7.30;6.70;;;;;;;21.61;63.95;97750.13;5065933;28;20222;-74
2023/09/17 00:16:43;;;;;;;7.57;7.00;;;;;;;21.52;64.50;97754.53;5065641;28;20466;-74
2023/09/17 00:19:11;;;;;;;7.27;6.77;;;;;;;21.52;64.68;97760.03;5070514;28;20485;-73
2023/09/17 00:21:38;;;;;;;6.50;6.10;;;;;;;21.41;64.05;97754.59;5070796;28;20523;-75
2023/09/17 00:24:06;;;;;;;7.40;6.40;;;;;;;21.31;64.26;97753.78;5066891;28;20532;-73
2023/09/17 00:26:33;;;;;;;6.80;6.23;;;;;;;20.98;65.35;97755.16;5066489;28;20458;-73
2023/09/17 00:29:00;;;;;;;6.80;6.40;;;;;;;21.17;65.15;97758.97;5070006;28;20449;-74
2023/09/17 00:31:27;;;;;;;6.70;6.20;;;;;;;21.17;64.86;97756.22;5068341;28;20493;-74
2023/09/17 00:33:54;;;;;;;6.63;6.03;;;;;;;21.19;65.31;97751.28;5066111;28;20496;-73
2023/09/17 00:36:23;;;;;;;6.80;6.13;;;;;;;21.21;65.03;97753.78;5068157;28;20488;-72
2023/09/17 00:38:50;;;;;;;6.30;5.90;;;;;;;21.17;65.29;97749.91;5070500;28;20842;-76
2023/09/17 00:41:17;;;;;;;6.50;6.00;;;;;;;21.08;66.19;97746.91;5069867;28;20744;-73
2023/09/17 00:43:44;;;;;;;7.30;6.80;;;;;;;21.12;66.46;97745.22;5068272;28;20481;-73
2023/09/17 00:46:13;;;;;;;7.77;7.00;;;;;;;21.02;66.63;97739.75;5068574;28;20489;-73
2023/09/17 00:48:40;;;;;;;7.20;6.50;;;;;;;21.08;66.86;97739.47;5069041;28;20540;-73
2023/09/17 00:51:07;;;;;;;7.47;6.87;;;;;;;21.02;67.14;97742.50;5068265;28;20572;-74
2023/09/17 00:53:35;;;;;;;6.97;6.37;;;;;;;20.90;67.57;97734.53;5066985;28;20484;-73
2023/09/17 00:56:02;;;;;;;7.73;7.13;;;;;;;20.79;68.05;97730.16;5068263;28;20457;-73
2023/09/17 00:58:31;;;;;;;6.90;6.40;;;;;;;20.78;68.41;97729.31;5069888;28;20508;-73
2023/09/17 01:00:59;;;;;;;7.47;6.97;;;;;;;20.67;68.90;97727.66;5068620;28;20463;-74
2023/09/17 01:03:26;;;;;;;7.63;7.13;;;;;;;20.53;69.60;97729.28;5063580;28;20476;-73
2023/09/17 01:05:53;;;;;;;7.40;6.90;;;;;;;20.72;69.16;97732.34;5066892;28;20533;-73
2023/09/17 01:08:20;;;;;;;8.10;7.50;;;;;;;20.58;69.77;97728.47;5069018;28;20578;-73
2023/09/17 01:10:48;;;;;;;7.50;7.00;;;;;;;20.54;69.72;97741.94;5068217;28;20949;-73
2023/09/17 01:13:15;;;;;;;7.50;7.00;;;;;;;20.39;70.56;97737.25;5066996;28;20961;-73
2023/09/17 01:15:42;;;;;;;8.20;7.23;;;;;;;20.54;69.95;97752.09;5067116;28;20452;-73
2023/09/17 01:18:10;;;;;;;8.33;7.60;;;;;;;20.24;71.36;97758.34;5066187;28;20872;-73
2023/09/17 01:20:54;;;;;;;8.90;8.13;;;;;;;20.16;71.55;97770.69;5064920;28;20792;-74
2023/09/17 01:23:27;;;;;;;8.50;7.80;;;;;;;20.24;71.01;97755.59;5065933;28;20509;-73
2023/09/17 01:25:57;;;;;;;8.10;7.50;;;;;;;20.20;71.25;97757.25;5065892;28;20478;-73
2023/09/17 01:28:25;;;;;;;7.60;7.00;;;;;;;20.13;71.17;97771.25;5067924;28;20542;-74
2023/09/17 01:30:52;;;;;;;8.50;7.80;;;;;;;20.17;70.74;97766.84;5069123;28;20487;-74
2023/09/17 01:33:19;;;;;;;8.00;7.50;;;;;;;20.21;70.19;97761.63;5066979;28;20498;-74
2023/09/17 01:35:52;;;;;;;8.20;7.60;;;;;;;20.29;70.44;97758.38;5066262;28;20875;-74
2023/09/17 01:38:20;;;;;;;7.67;7.17;;;;;;;20.32;69.88;97757.81;5067181;28;20484;-73
2023/09/17 01:40:49;;;;;;;8.10;7.50;;;;;;;20.44;69.53;97756.53;5069577;28;20536;-74
2023/09/17 01:43:18;;;;;;;7.93;7.40;;;;;;;20.49;69.29;97750.19;5066867;28;20489;-74
2023/09/17 01:45:46;;;;;;;8.80;8.20;;;;;;;20.54;68.96;97760.34;5066008;28;20504;-74
2023/09/17 01:48:14;;;;;;;8.13;7.53;;;;;;;20.53;68.81;97765.03;5067599;28;20547;-74
2023/09/17 01:50:41;;;;;;;7.00;6.50;;;;;;;20.66;68.29;97771.94;5065281;28;20494;-74
2023/09/17 01:53:07;;;;;;;8.67;7.87;;;;;;;20.74;68.29;97777.72;5063579;28;20536;-74
2023/09/17 01:55:35;;;;;;;6.93;6.43;;;;;;;20.82;68.29;97775.50;5066200;28;20455;-74
2023/09/17 01:58:03;;;;;;;7.70;7.20;;;;;;;20.90;67.96;97769.47;5067048;28;20849;-74
2023/09/17 02:00:29;;;;;;;7.13;6.57;;;;;;;20.85;67.97;97769.47;5066531;28;20469;-73
2023/09/17 02:02:58;;;;;;;8.10;7.40;;;;;;;20.89;67.68;97770.56;5067740;28;20512;-74
2023/09/17 02:05:25;;;;;;;9.27;8.47;;;;;;;20.90;67.43;97774.97;5066672;28;20465;-74
2023/09/17 02:07:52;;;;;;;8.20;7.60;;;;;;;20.76;67.93;97780.22;5067096;28;20485;-73
2023/09/17 02:10:20;;;;;;;8.03;7.43;;;;;;;20.68;68.16;97778.81;5066261;28;20537;-74
2023/09/17 02:12:47;;;;;;;8.03;7.30;;;;;;;20.63;68.75;97776.06;5068685;28;20452;-73
2023/09/17 02:15:14;;;;;;;8.43;7.80;;;;;;;20.70;68.24;97779.38;5065211;28;20489;-73
2023/09/17 02:17:42;;;;;;;8.57;7.97;;;;;;;20.74;67.71;97777.72;5068514;28;20536;-75
2023/09/17 02:20:11;;;;;;;8.43;7.93;;;;;;;20.74;68.39;97780.47;5068122;28;20651;-74
2023/09/17 02:22:38;;;;;;;7.07;6.60;;;;;;;20.77;67.89;97765.34;5067535;28;20471;-73
2023/09/17 02:25:06;;;;;;;8.10;7.50;;;;;;;20.78;67.98;97770.59;5064451;28;20462;-74
2023/09/17 02:27:33;;;;;;;8.83;7.97;;;;;;;20.49;69.00;97763.09;5065095;28;20454;-74
2023/09/17 02:29:59;;;;;;;8.40;7.80;;;;;;;20.35;69.86;97779.28;5067792;28;20481;-73
2023/09/17 02:32:27;;;;;;;8.13;7.53;;;;;;;20.37;69.95;97783.44;5067038;28;20532;-74
2023/09/17 02:34:53;;;;;;;8.97;8.27;;;;;;;20.45;69.69;97773.84;5066009;28;20512;-74
2023/09/17 02:37:21;;;;;;;7.90;7.30;;;;;;;20.50;69.41;97781.25;5068054;28;20454;-73
2023/09/17 02:39:48;;;;;;;8.10;7.50;;;;;;;20.40;69.66;97768.31;5066924;28;20553;-73
2023/09/17 02:42:15;;;;;;;8.67;7.97;;;;;;;20.39;69.82;97772.19;5069810;28;21531;-74
2023/09/17 02:44:42;;;;;;;8.27;7.57;;;;;;;20.23;70.35;97770.44;5066240;28;20981;-74
2023/09/17 02:47:10;;;;;;;8.40;7.60;;;;;;;20.07;70.93;97766.84;5064877;28;21120;-73
2023/09/17 02:49:37;;;;;;;7.67;7.13;;;;;;;19.95;71.49;97756.06;5066386;28;20544;-73
2023/09/17 02:52:04;;;;;;;6.97;6.57;;;;;;;20.15;70.82;97766.28;5065449;28;20508;-73
2023/09/17 02:54:33;;;;;;;7.90;7.30;;;;;;;20.28;70.26;97774.03;5066413;28;21092;-73
2023/09/17 02:56:59;;;;;;;8.07;7.57;;;;;;;20.27;70.29;97771.56;5068441;28;21036;-74
2023/09/17 02:59:26;;;;;;;7.77;7.27;;;;;;;20.17;70.79;97771.53;5066338;28;20456;-74
2023/09/17 03:01:53;;;;;;;8.90;8.00;;;;;;;20.04;71.34;97778.38;5065844;28;20468;-73
2023/09/17 03:04:20;;;;;;;8.30;7.70;;;;;;;20.08;71.18;97785.81;5059816;28;20476;-74
2023/09/17 03:06:47;;;;;;;8.80;8.20;;;;;;;19.96;71.94;97782.44;5066861;28;20854;-74
2023/09/17 03:09:14;;;;;;;8.23;7.53;;;;;;;19.79;72.31;97782.66;5064481;28;20542;-72
2023/09/17 03:11:42;;;;;;;7.77;7.10;;;;;;;19.89;72.17;97781.88;5067831;28;20447;-72
2023/09/17 03:14:08;;;;;;;8.33;7.73;;;;;;;20.01;71.47;97787.16;5063365;28;20479;-72
2023/09/17 03:16:35;;;;;;;9.00;8.20;;;;;;;19.78;72.35;97786.50;5064254;28;20487;-72
2023/09/17 03:19:02;;;;;;;8.47;7.87;;;;;;;19.70;73.14;97788.94;5065658;28;20447;-72
2023/09/17 03:21:29;;;;;;;8.80;8.20;;;;;;;19.62;73.38;97793.00;5064315;28;21135;-72
2023/09/17 03:23:56;;;;;;;8.80;8.10;;;;;;;19.66;73.36;97785.88;5063983;28;20479;-72
2023/09/17 03:26:23;;;;;;;8.97;8.27;;;;;;;19.67;73.41;97784.78;5067456;28;20716;-72
2023/09/17 03:28:51;;;;;;;9.13;8.53;;;;;;;19.63;73.54;97786.41;5061774;28;20463;-72
2023/09/17 03:31:18;;;;;;;8.70;8.00;;;;;;;19.63;73.83;97793.81;5066105;28;20463;-72
2023/09/17 03:33:44;;;;;;;9.47;8.60;;;;;;;19.60;73.65;97788.88;5064878;28;20543;-72
2023/09/17 03:36:11;;;;;;;8.93;8.23;;;;;;;19.54;74.31;97792.66;5067495;28;20498;-72
2023/09/17 03:38:39;;;;;;;8.37;7.77;;;;;;;19.60;73.98;97786.94;5067905;28;20440;-72
2023/09/17 03:41:05;;;;;;;9.07;8.47;;;;;;;19.54;74.06;97784.44;5067169;28;21010;-72
2023/09/17 03:43:34;;;;;;;8.90;8.20;;;;;;;19.60;73.98;97794.34;5063005;28;20567;-72
2023/09/17 03:46:04;;;;;;;9.30;8.60;;;;;;;19.54;74.38;97792.66;5065243;28;20471;-72
2023/09/17 03:48:32;;;;;;;9.67;8.87;;;;;;;19.47;74.56;97790.16;5065204;28;20468;-71
2023/09/17 03:50:59;;;;;;;8.97;8.37;;;;;;;19.48;74.77;97788.25;5065603;28;20705;-71
2023/09/17 03:53:27;;;;;;;8.20;7.60;;;;;;;19.48;74.68;97785.50;5063515;28;20504;-71
2023/09/17 03:55:54;;;;;;;8.50;7.80;;;;;;;19.37;75.20;97782.69;5067469;28;21064;-72
2023/09/17 03:58:21;;;;;;;8.50;7.90;;;;;;;19.29;75.72;97788.66;5069033;28;20552;-72
2023/09/17 04:00:48;;;;;;;9.53;8.80;;;;;;;18.98;77.10;97787.59;5069147;28;20460;-72
2023/09/17 04:03:19;;;;;;;8.83;8.13;;;;;;;18.97;77.43;97779.63;5066127;28;20466;-72
2023/09/17 04:05:46;;;;;;;9.70;9.00;;;;;;;18.89;77.65;97783.69;5071297;28;20460;-72
2023/09/17 04:08:13;;;;;;;8.80;8.13;;;;;;;18.95;77.84;97781.81;5069253;28;20471;-72
2023/09/17 04:10:40;;;;;;;8.67;8.00;;;;;;;18.77;78.61;97781.13;5069245;28;20968;-72
2023/09/17 04:13:09;;;;;;;9.27;8.67;;;;;;;18.72;78.97;97786.56;5069278;28;20523;-72
2023/09/17 04:15:36;;;;;;;10.10;9.37;;;;;;;18.73;78.86;97774.53;5069293;28;21062;-72
2023/09/17 04:18:05;;;;;;;9.60;8.90;;;;;;;18.46;80.79;97784.66;5069721;28;20458;-71
2023/09/17 04:20:34;;;;;;;10.00;9.20;;;;;;;18.33;81.74;97779.56;5066799;28;20473;-72
2023/09/17 04:23:02;;;;;;;9.57;8.77;;;;;;;18.32;81.90;97777.91;5067059;28;20533;-71
2023/09/17 04:25:29;;;;;;;9.33;8.63;;;;;;;18.29;82.72;97775.69;5066243;28;20458;-73
2023/09/17 04:27:55;;;;;;;9.90;9.20;;;;;;;18.37;82.27;97775.22;5069879;28;20454;-72
2023/09/17 04:30:23;;;;;;;9.63;8.80;;;;;;;18.40;82.09;97775.56;5068715;28;20497;-72
2023/09/17 04:32:51;;;;;;;10.00;9.10;;;;;;;18.41;82.23;97781.84;5065902;28;20482;-72
2023/09/17 04:35:18;;;;;;;9.63;8.93;;;;;;;18.26;82.76;97778.94;5062404;28;20485;-76
2023/09/17 04:37:47;;;;;;;8.80;8.20;;;;;;;18.35;82.93;97780.16;5059969;28;20486;-75
2023/09/17 04:40:14;;;;;;;10.03;9.33;;;;;;;18.31;82.82;97782.56;5061549;28;21078;-76
2023/09/17 04:42:43;;;;;;;9.27;8.47;;;;;;;18.31;82.91;97799.00;5061961;28;20527;-75
2023/09/17 04:45:11;;;;;;;10.20;9.40;;;;;;;18.25;83.15;97793.72;5060645;28;20553;-76
2023/09/17 04:47:38;;;;;;;10.30;9.27;;;;;;;18.20;83.69;97808.19;5067434;28;20461;-76
2023/09/17 04:50:08;;;;;;;10.00;9.20;;;;;;;18.20;83.80;97808.19;5066328;28;20465;-76
2023/09/17 04:52:34;;;;;;;10.10;9.30;;;;;;;18.04;84.11;97803.63;5069581;28;20466;-76
2023/09/17 04:55:02;;;;;;;10.50;9.70;;;;;;;18.22;83.67;97805.19;5066221;28;20892;-76
2023/09/17 04:57:29;;;;;;;9.43;8.73;;;;;;;18.28;83.52;97806.91;5068511;28;20451;-76
2023/09/17 04:59:56;;;;;;;10.10;9.30;;;;;;;18.21;83.70;97803.53;5066595;28;20864;-76
2023/09/17 05:02:23;;;;;;;11.03;10.23;;;;;;;18.16;84.23;97811.72;5066728;28;20541;-76
2023/09/17 05:04:50;;;;;;;11.17;10.17;;;;;;;18.06;84.39;97807.78;5044992;28;20493;-75
2023/09/17 05:07:17;;;;;;;10.93;10.03;;;;;;;18.05;84.60;97811.59;5064350;28;20538;-76
2023/09/17 05:09:44;;;;;;;9.50;8.90;;;;;;;18.09;84.68;97806.44;5067557;28;20488;-76
2023/09/17 05:12:12;;;;;;;9.90;9.00;;;;;;;18.20;84.32;97816.41;5064636;28;20633;-76
2023/09/17 05:14:40;;;;;;;10.40;9.50;;;;;;;18.06;84.91;97817.91;5065879;28;20485;-76
2023/09/17 05:17:06;;;;;;;9.70;9.00;;;;;;;17.94;85.57;97820.75;5064771;28;20462;-76
2023/09/17 05:19:33;;;;;;;10.83;9.93;;;;;;;17.98;85.39;97829.31;5065261;28;20465;-76
2023/09/17 05:22:00;;;;;;;11.47;10.43;;;;;;;18.02;85.24;97831.28;5060297;28;20450;-76
2023/09/17 05:24:26;;;;;;;10.40;9.70;;;;;;;17.90;85.67;97836.03;5062668;28;20491;-72
2023/09/17 05:26:53;;;;;;;10.47;9.50;;;;;;;17.88;86.27;97829.16;5054738;28;20545;-76
2023/09/17 05:29:22;;;;;;;10.57;9.77;;;;;;;17.90;86.15;97835.22;5065965;28;20459;-76
2023/09/17 05:31:48;;;;;;;10.20;9.40;;;;;;;17.96;85.84;97834.19;5066842;28;20482;-76
2023/09/17 05:34:15;;;;;;;10.73;9.80;;;;;;;18.02;85.39;97831.28;5067878;28;20527;-76
2023/09/17 05:36:42;;;;;;;9.07;8.47;;;;;;;18.10;85.30;97836.31;5062206;28;20529;-76
2023/09/17 05:39:09;;;;;;;9.53;8.80;;;;;;;18.18;84.67;97847.91;5066806;28;20946;-75
2023/09/17 05:41:37;;;;;;;9.47;8.70;;;;;;;18.17;84.46;97838.88;5066882;28;20478;-76
2023/09/17 05:44:03;;;;;;;9.03;8.43;;;;;;;18.19;84.61;97841.34;5064585;28;20478;-76
2023/09/17 05:46:32;;;;;;;9.13;8.53;;;;;;;18.27;84.29;97846.34;5060366;28;20555;-76
2023/09/17 05:48:58;;;;;;;8.83;8.03;;;;;;;18.31;83.92;97852.97;5067301;28;21892;-76
2023/09/17 05:51:25;;;;;;;10.17;9.47;;;;;;;18.38;83.79;97848.13;5066956;28;20537;-76
2023/09/17 05:53:52;;;;;;;8.77;8.07;;;;;;;18.65;82.12;97848.19;5068260;28;21380;-76
2023/09/17 05:56:19;;;;;;;9.10;8.50;;;;;;;18.89;81.13;97848.69;5065361;28;20486;-76
2023/09/17 05:58:46;;;;;;;8.50;7.90;;;;;;;19.18;79.58;97847.28;5069568;28;20508;-77
2023/09/17 06:01:12;;;;;;;8.07;7.47;;;;;;;19.29;79.03;97850.94;5062463;28;20960;-76
2023/09/17 06:03:41;;;;;;;8.43;7.60;;;;;;;19.64;77.52;97855.91;5064600;28;20520;-77
2023/09/17 06:06:08;;;;;;;9.10;8.30;;;;;;;19.72;77.17;97858.97;5065092;28;20497;-75
2023/09/17 06:08:35;;;;;;;8.63;7.93;;;;;;;20.17;75.04;97848.47;5065350;28;20492;-75
2023/09/17 06:11:02;;;;;;;7.63;7.13;;;;;;;20.63;72.80;97857.75;5064365;28;20705;-76
2023/09/17 06:13:28;;;;;;;8.73;8.13;;;;;;;20.57;72.75;97854.16;5063650;28;21388;-77
2023/09/17 06:15:55;;;;;;;8.50;7.80;;;;;;;20.86;71.43;97856.41;5061582;28;20481;-81
2023/09/17 06:18:22;;;;;;;7.40;6.87;;;;;;;20.94;71.03;97858.63;5059856;28;20547;-77
2023/09/17 06:20:50;;;;;;;7.33;6.83;;;;;;;21.10;70.08;97857.56;5064395;28;20539;-77
2023/09/17 06:23:17;;;;;;;7.53;6.93;;;;;;;21.27;70.15;97849.84;5066592;28;21019;-77
2023/09/17 06:25:44;;;;;;;8.17;7.60;;;;;;;21.46;68.93;97850.94;5065881;28;20457;-77
2023/09/17 06:28:10;;;;;;;7.80;7.30;;;;;;;21.61;68.22;97858.38;5057091;28;22009;-77
2023/09/17 06:30:37;;;;;;;6.80;6.20;;;;;;;21.87;67.55;97856.38;5061348;28;20457;-78
2023/09/17 06:33:04;;;;;;;7.03;6.53;;;;;;;22.21;66.24;97855.75;5064796;28;20481;-78
2023/09/17 06:35:31;;;;;;;7.63;7.00;;;;;;;22.95;63.30;97854.84;5065321;28;20486;-78
2023/09/17 06:37:59;;;;;;;6.87;6.37;;;;;;;23.76;60.75;97846.69;5060802;28;20457;-78
2023/09/17 06:40:26;;;;;;;7.23;6.67;;;;;;;23.78;59.91;97847.22;5067741;28;20525;-78
2023/09/17 06:42:53;;;;;;;7.20;6.70;;;;;;;23.28;61.66;97854.03;5064419;28;20482;-78
2023/09/17 06:45:20;;;;;;;6.30;5.90;;;;;;;23.32;61.92;97849.59;5060106;28;20469;-78
2023/09/17 06:47:47;;;;;;;6.90;6.50;;;;;;;23.78;60.49;97846.41;5063801;28;20878;-75
2023/09/17 06:50:14;;;;;;;6.73;6.33;;;;;;;23.97;59.45;97849.25;5055918;28;20915;-76
2023/09/17 06:52:41;;;;;;;6.60;6.13;;;;;;;23.42;61.17;97845.88;5053884;28;20470;-76
2023/09/17 06:55:09;;;;;;;7.27;6.67;;;;;;;23.58;61.15;97846.63;5063626;28;20512;-76
2023/09/17 06:57:36;;;;;;;6.37;5.97;;;;;;;24.10;59.48;97846.59;5061976;28;20454;-76
2023/09/17 07:00:04;;;;;;;6.43;5.93;;;;;;;23.82;59.52;97841.94;5063277;28;20467;-75
2023/09/17 07:02:31;;;;;;;6.73;6.23;;;;;;;23.61;61.12;97843.28;5064739;28;20931;-76
2023/09/17 07:05:00;;;;;;;7.03;6.43;;;;;;;23.72;60.47;97847.56;5058854;28;20861;-77
2023/09/17 07:07:26;;;;;;;6.50;6.00;;;;;;;23.58;60.65;97846.63;5063950;28;20536;-77
2023/09/17 07:09:53;;;;;;;6.03;5.63;;;;;;;23.94;59.94;97845.13;5064018;28;20814;-74
2023/09/17 07:12:22;;;;;;;6.20;5.70;;;;;;;24.09;59.30;97852.41;5065164;28;20502;-83
2023/09/17 07:14:48;;;;;;;6.80;6.40;;;;;;;24.11;58.89;97851.00;5064006;28;20452;-82
2023/09/17 07:17:16;;;;;;;6.20;5.70;;;;;;;23.94;59.57;97842.38;5060638;28;20549;-78
2023/09/17 07:19:44;;;;;;;6.40;6.00;;;;;;;24.42;58.12;97845.13;5062857;28;20446;-78
2023/09/17 07:22:14;;;;;;;7.00;6.30;;;;;;;24.10;59.12;97846.59;5061693;28;20846;-78
2023/09/17 07:24:41;;;;;;;7.20;6.70;;;;;;;24.21;58.60;97840.97;5061876;28;20469;-77
2023/09/17 07:27:08;;;;;;;7.63;7.03;;;;;;;23.88;59.42;97851.84;5060298;28;20494;-77
2023/09/17 07:29:37;;;;;;;6.90;6.43;;;;;;;23.87;60.08;97846.59;5049994;28;20454;-78
2023/09/17 07:32:05;;;;;;;7.47;6.97;;;;;;;23.85;59.34;97855.19;5052415;28;21164;-79
2023/09/17 07:34:32;;;;;;;6.57;6.07;;;;;;;24.58;57.94;97854.06;5052352;28;20971;-78
2023/09/17 07:37:00;;;;;;;6.73;6.23;;;;;;;24.23;58.48;97853.38;5054320;28;20604;-78
2023/09/17 07:39:27;;;;;;;6.00;5.60;;;;;;;24.88;56.71;97853.63;5053367;28;20465;-79
2023/09/17 07:41:54;;;;;;;6.40;5.90;;;;;;;25.04;56.45;97862.56;5068456;28;20537;-79
2023/09/17 07:44:21;;;;;;;6.53;6.13;;;;;;;25.21;55.64;97857.31;5064842;28;20485;-79
2023/09/17 07:46:49;;;;;;;6.77;5.97;;;;;;;24.98;55.53;97863.78;5064981;28;20458;-79
2023/09/17 07:49:17;;;;;;;6.40;5.80;;;;;;;24.41;57.24;97865.63;5065654;28;21184;-79
2023/09/17 07:51:44;;;;;;;6.07;5.57;;;;;;;24.48;57.67;97874.41;5064648;28;20984;-78
2023/09/17 07:54:11;;;;;;;5.93;5.63;;;;;;;24.67;56.66;97875.25;5067419;28;20458;-79
2023/09/17 07:56:38;;;;;;;6.10;5.70;;;;;;;24.67;56.68;97880.81;5063266;28;20839;-78
2023/09/17 07:59:05;;;;;;;6.07;5.47;;;;;;;25.10;55.64;97872.44;5067949;28;20441;-78
2023/09/17 08:01:32;;;;;;;6.10;5.60;;;;;;;26.19;52.90;97877.50;5063834;28;20469;-79
2023/09/17 08:04:00;;;;;;;5.70;5.20;;;;;;;26.84;50.58;97876.47;5063912;28;20459;-78
2023/09/17 08:06:27;;;;;;;5.33;5.03;;;;;;;26.80;50.42;97876.25;5060903;28;20458;-78
2023/09/17 08:08:54;;;;;;;4.60;4.30;;;;;;;26.55;50.79;97876.81;5056134;28;21254;-77
2023/09/17 08:11:21;;;;;;;4.93;4.50;;;;;;;26.60;49.21;97879.47;5059523;28;20458;-80
2023/09/17 08:13:48;;;;;;;5.50;5.10;;;;;;;26.16;49.88;97882.84;5062877;28;20477;-79
2023/09/17 08:16:16;;;;;;;4.93;4.53;;;;;;;26.41;50.42;97890.69;5064185;28;20481;-78
2023/09/17 08:18:43;;;;;;;4.50;4.20;;;;;;;27.01;47.89;97882.19;5066268;28;21381;-78
2023/09/17 08:21:12;;;;;;;4.53;4.23;;;;;;;26.62;48.86;97902.22;5066793;28;20450;-78
2023/09/17 08:23:39;;;;;;;5.37;4.80;;;;;;;26.52;48.81;97894.09;5066107;28;21082;-78
2023/09/17 08:26:05;;;;;;;4.70;4.33;;;;;;;26.97;47.92;97898.66;5066108;28;20547;-78
2023/09/17 08:28:33;;;;;;;4.47;4.10;;;;;;;27.17;47.79;97886.28;5065200;28;20457;-79
2023/09/17 08:31:01;;;;;;;4.40;4.10;;;;;;;27.64;47.00;97897.94;5066759;28;20845;-78
2023/09/17 08:33:27;;;;;;;5.47;5.17;;;;;;;27.90;45.28;97906.47;5063301;28;20997;-80
2023/09/17 08:35:54;;;;;;;4.70;4.40;;;;;;;27.60;46.58;97895.00;5066505;28;20481;-79
2023/09/17 08:38:22;;;;;;;4.70;4.40;;;;;;;28.26;44.72;97900.81;5066837;28;20473;-79
2023/09/17 08:40:50;;;;;;;5.10;4.70;;;;;;;28.07;45.20;97899.03;5061753;28;20458;-81
2023/09/17 08:43:17;;;;;;;5.33;4.93;;;;;;;28.46;44.39;97894.66;5063340;28;20536;-79
2023/09/17 08:45:44;;;;;;;5.03;4.73;;;;;;;28.41;44.48;97889.22;5067848;28;20490;-79
2023/09/17 08:48:13;;;;;;;5.17;4.67;;;;;;;28.74;43.28;97895.22;5060579;28;20454;-80
2023/09/17 08:50:40;;;;;;;4.37;4.13;;;;;;;29.56;42.13;97896.34;5064691;28;20814;-80
2023/09/17 08:53:08;;;;;;;4.53;4.13;;;;;;;29.32;42.18;97900.41;5064717;28;20517;-76
2023/09/17 08:55:36;;;;;;;4.53;4.23;;;;;;;29.43;42.06;97898.16;5062867;28;20450;-80
2023/09/17 08:58:08;;;;;;;4.70;4.40;;;;;;;29.29;42.33;97898.28;5064175;28;20462;-79
2023/09/17 09:00:36;;;;;;;4.30;4.00;;;;;;;28.99;43.03;97894.47;5059385;28;20865;-81
2023/09/17 09:03:05;;;;;;;4.87;4.57;;;;;;;29.04;43.45;97887.94;5065624;28;20837;-80
2023/09/17 09:05:32;;;;;;;4.77;4.37;;;;;;;30.10;40.90;97888.38;5068173;28;20446;-80
2023/09/17 09:07:59;;;;;;;4.47;4.17;;;;;;;30.16;39.28;97889.84;5068799;28;20553;-80
2023/09/17 09:10:26;;;;;;;4.60;4.20;;;;;;;30.24;40.09;97887.00;5068131;28;20474;-80
2023/09/17 09:12:56;;;;;;;4.90;4.50;;;;;;;30.30;40.48;97885.66;5070118;28;20498;-80
2023/09/17 09:15:22;;;;;;;4.70;4.30;;;;;;;30.49;40.07;97881.66;5068916;28;20545;-80
2023/09/17 09:17:49;;;;;;;4.77;4.40;;;;;;;31.35;37.00;97887.56;5066538;28;20460;-80
2023/09/17 09:20:16;;;;;;;4.60;4.17;;;;;;;31.46;36.86;97887.16;5066101;28;20219;-80
2023/09/17 09:22:45;;;;;;;4.30;3.90;;;;;;;31.39;37.57;97885.72;5063592;28;20482;-80
2023/09/17 09:25:14;;;;;;;4.57;4.03;;;;;;;31.41;36.97;97879.78;5067977;28;20466;-80
2023/09/17 09:27:41;;;;;;;4.70;4.00;;;;;;;31.96;36.45;97889.81;5067577;28;20507;-80
2023/09/17 09:30:10;;;;;;;4.53;3.87;;;;;;;32.03;36.52;97882.47;5068078;28;20481;-80
2023/09/17 09:32:37;;;;;;;4.20;3.90;;;;;;;31.49;36.64;97880.88;5068737;28;20474;-80
2023/09/17 09:35:06;;;;;;;4.17;3.77;;;;;;;31.80;35.78;97880.44;5069512;28;20509;-81
2023/09/17 09:37:35;;;;;;;4.03;3.70;;;;;;;32.05;35.27;97877.34;5068788;28;20482;-81
2023/09/17 09:40:02;;;;;;;4.77;4.00;;;;;;;31.82;35.75;97876.13;5066819;28;20458;-80
2023/09/17 09:42:28;;;;;;;3.50;3.20;;;;;;;31.89;36.01;97872.75;5070169;28;20466;-78
2023/09/17 09:44:55;;;;;;;3.67;3.47;;;;;;;32.34;35.59;97876.38;5069346;28;20442;-80
2023/09/17 09:47:23;;;;;;;4.27;3.47;;;;;;;32.87;33.45;97862.47;5068714;28;20462;-79
2023/09/17 09:49:50;;;;;;;3.83;3.50;;;;;;;32.18;34.70;97868.94;5067192;28;20473;-79
2023/09/17 09:52:18;;;;;;;3.83;3.40;;;;;;;32.23;35.48;97865.97;5067713;28;20466;-80
2023/09/17 09:54:45;;;;;;;4.17;3.80;;;;;;;32.60;34.69;97859.22;5069014;28;20494;-79
2023/09/17 09:57:12;;;;;;;4.07;3.77;;;;;;;32.35;35.31;97857.56;5067286;28;20485;-81
2023/09/17 09:59:42;;;;;;;3.80;3.50;;;;;;;32.66;34.66;97855.00;5069715;28;20450;-79
2023/09/17 10:02:11;;;;;;;6.00;3.67;;;;;;;32.57;34.32;97847.88;5067413;28;20883;-79
2023/09/17 10:04:39;;;;;;;5.93;4.10;;;;;;;31.93;35.05;97852.09;5068910;28;20462;-78
2023/09/17 10:07:08;;;;;;;3.87;3.30;;;;;;;32.53;34.19;97846.94;5066312;28;20972;-80
2023/09/17 10:09:35;;;;;;;3.73;3.40;;;;;;;32.64;33.84;97837.72;5065991;28;20477;-80
2023/09/17 10:12:03;;;;;;;3.37;3.10;;;;;;;33.19;33.34;97838.22;5068145;28;20498;-79
2023/09/17 10:14:30;;;;;;;5.60;3.30;;;;;;;33.30;32.23;97830.97;5068222;28;21068;-79
2023/09/17 10:17:00;;;;;;;5.37;3.60;;;;;;;33.33;32.16;97821.84;5067753;28;20489;-80
2023/09/17 10:19:29;;;;;;;4.30;3.33;;;;;;;32.82;32.41;97823.47;5067560;28;20533;-79
2023/09/17 10:21:58;;;;;;;3.93;3.00;;;;;;;32.95;32.86;97825.09;5065683;28;20474;-80
2023/09/17 10:24:26;;;;;;;4.00;3.53;;;;;;;33.25;31.28;97817.97;5068364;28;20494;-80
2023/09/17 10:26:54;;;;;;;3.57;3.23;;;;;;;33.92;30.41;97816.28;5067083;28;20516;-80
2023/09/17 10:29:22;;;;;;;4.97;3.47;;;;;;;33.87;30.42;97822.19;5068204;28;20482;-80
2023/09/17 10:31:49;;;;;;;3.60;2.97;;;;;;;33.97;30.67;97816.03;5068902;28;20497;-80
2023/09/17 10:34:17;;;;;;;3.77;2.70;;;;;;;33.88;30.24;97815.38;5069586;28;20507;-80
2023/09/17 10:36:44;;;;;;;5.93;3.60;;;;;;;34.22;30.28;97815.84;5067867;28;20512;-80
2023/09/17 10:39:15;;;;;;;4.73;3.10;;;;;;;33.92;30.65;97807.88;5067018;28;20465;-80
2023/09/17 10:41:44;;;;;;;4.43;3.07;;;;;;;33.83;30.90;97804.41;5065472;28;20478;-79
2023/09/17 10:44:13;;;;;;;4.23;3.27;;;;;;;33.82;30.81;97818.81;5069283;28;20454;-80
2023/09/17 10:46:42;;;;;;;3.40;3.00;;;;;;;34.06;29.69;97801.00;5067172;28;20877;-80
2023/09/17 10:49:11;;;;;;;3.33;3.00;;;;;;;34.13;30.22;97801.97;5068192;28;20454;-80
2023/09/17 10:51:39;;;;;;;3.80;3.20;;;;;;;34.14;30.97;97808.41;5068282;28;21560;-80
2023/09/17 10:54:06;;;;;;;3.47;3.17;;;;;;;33.98;31.09;97800.81;5069150;28;20461;-80
2023/09/17 10:56:34;;;;;;;3.57;3.20;;;;;;;33.77;31.22;97789.00;5067601;28;20490;-80
2023/09/17 10:59:01;;;;;;;3.80;3.40;;;;;;;33.56;31.21;97794.00;5065945;28;20969;-80
2023/09/17 11:01:31;;;;;;;5.03;3.40;;;;;;;33.61;31.28;97788.97;5066210;28;20545;-80
2023/09/17 11:04:02;;;;;;;3.63;3.20;;;;;;;33.80;31.66;97787.47;5067154;28;20458;-80
2023/09/17 11:06:30;;;;;;;4.43;3.00;;;;;;;33.94;31.41;97783.03;5065492;28;20471;-80
2023/09/17 11:08:57;;;;;;;3.73;3.10;;;;;;;33.36;31.35;97785.47;5070736;28;20573;-79
2023/09/17 11:11:25;;;;;;;4.63;2.80;;;;;;;33.41;31.44;97789.19;5071857;28;20977;-79
2023/09/17 11:13:54;;;;;;;3.33;2.83;;;;;;;33.57;31.59;97784.41;5070701;28;20489;-80
2023/09/17 11:16:22;;;;;;;5.33;2.77;;;;;;;33.98;30.57;97789.56;5069582;28;20454;-79
2023/09/17 11:19:04;;;;;;;4.57;3.47;;;;;;;34.07;30.06;97777.34;5072189;28;20454;-80
2023/09/17 11:21:31;;;;;;;5.73;2.83;;;;;;;34.02;30.23;97784.06;5072099;28;20840;-80
2023/09/17 11:23:58;;;;;;;4.10;2.97;;;;;;;33.19;31.04;97780.13;5071751;28;20446;-80
2023/09/17 11:26:27;;;;;;;3.33;3.03;;;;;;;33.07;31.47;97782.16;5068123;28;20559;-80
2023/09/17 11:28:56;;;;;;;5.30;3.17;;;;;;;33.10;31.13;97778.66;5070440;28;20458;-80
2023/09/17 11:31:26;;;;;;;3.23;2.90;;;;;;;32.99;31.68;97781.13;5071247;28;20483;-79
2023/09/17 11:33:53;;;;;;;4.80;3.10;;;;;;;33.28;31.82;97789.22;5070564;28;20968;-80